aviador You're here:

EPKK Decoded Metar

KRAKOW in POLAND
Report Time2018-01-16 13:00:00
UTC Time2018-01-16 13:10:16
Flight Rules vfr VFR
Wind090° at 03 kt
W.Decomp.*RWY 07: 2.9 kt HW 0.9 kt RCW
W.Rank090° ranks 16
Current wind is below 090° avg. (5.6)
Visibility9999 m
Phenomena:N/A
Clouds:Broken 033 Hf
Expected CloudBase > 2,800 ft AGL from Temp-Dew spread
Ceiling3,300 ft
Temp02°C (ISA -11)
Dew Point-5°C (60% RH)
AAT-1.7°C
QNH0997 hPa
Density Alt-3 ft
Elevation778 ft
Report Wrong Elevation
Raw Report
EPKK 161300Z 09003KT 070V130 9999 BKN033 02/M05 Q0997=

Extra information for EPKK:More info

Metar Taf Metar & Taf Last 4 Metars F.Rules Stats Wind Profile Meteogram Temp Stats Airport Information Weather charts Add Link Nearby VenuesMetar ALERT Operation Metar Decoded Social comments